Terminal Aerodrome Forecast
Issued by NWS

Home | Current Version | Previous Version | Text Only | Print | Product List | Glossary On
Versions: 1 2 3 4 5 6 7 8 9 10 11 12 13 14 15 16 17 18 19 20 21 22 23 24 25 26 27 28 29 30 31
000
FTUS43 KABR 231100
TAFMBG
TAF
KMBG 231139Z 2312/2412 07017G26KT 2SM +RA BR VCSH FEW009 BKN070
      OVC090
     FM231300 07011KT 6SM SHRA BR OVC006
     FM231700 07016KT 4SM +SHRA BR OVC012
     FM240000 13016KT P6SM VCSH OVC015
     FM240700 29008KT P6SM OVC015=

USA.gov is the U.S. government's official web portal to all federal, state and local government web resources and services.